.
WxDataArchive / Data Records for 2014-11-08
2014-11-07 November 2014 2014-11-09

Data Records for Saturday, 08 November 2014

Time	Temp	Chill	HIndex	Humid	Dewpt	 Wind 	HiWind	WindDir	Rain 	Barom
-----	----	-----	------	-----	-----	------	------	-------	-----	-----
00:00	38.0	38.0	38.0	72	29.8	0	1	112	0.00	29.925 
00:05	38.0	38.0	38.0	72	29.8	0	1	112	0.00	29.925 
00:10	38.0	38.0	38.0	72	29.8	0	1	112	0.00	29.925 
00:15	38.0	38.0	38.0	72	29.8	0	1	112	0.00	29.926 
00:20	37.9	37.9	37.9	73	30.0	0	1	112	0.00	29.926 
00:25	37.9	37.9	37.9	73	30.0	0	1	112	0.00	29.926 
00:30	37.9	37.9	37.9	73	30.0	0	2	112	0.00	29.922 
00:35	38.0	38.0	38.0	73	30.1	0	1	112	0.00	29.922 
00:40	38.0	38.0	38.0	73	30.1	0	1	112	0.00	29.922 
00:45	38.0	38.0	38.0	73	30.1	0	2	112	0.00	29.917 
00:50	38.0	38.0	38.0	73	30.1	0	1	112	0.00	29.917 
00:55	38.0	38.0	38.0	73	30.1	0	1	112	0.00	29.917 
01:00	38.0	38.0	38.0	73	30.1	0	1	112	0.00	29.910 
01:05	38.0	38.0	38.0	73	30.1	0	1	112	0.00	29.910 
01:10	38.0	38.0	38.0	73	30.1	0	1	112	0.00	29.910 
01:15	38.2	38.2	38.2	73	30.3	0	2	112	0.00	29.899 
01:20	38.2	38.2	38.2	73	30.3	0	1	112	0.00	29.899 
01:25	38.2	38.2	38.2	73	30.3	0	2	112	0.00	29.899 
01:30	38.2	38.2	38.2	73	30.3	0	1	112	0.00	29.894 
01:35	38.2	38.2	38.2	73	30.3	0	1	112	0.00	29.894 
01:40	38.2	38.2	38.2	73	30.3	0	1	112	0.00	29.894 
01:45	38.2	38.2	38.2	73	30.3	0	2	112	0.00	29.882 
01:50	38.2	38.2	38.2	73	30.3	1	5	112	0.00	29.882 
01:55	38.2	38.2	38.2	73	30.3	0	1	135	0.00	29.882 
02:00	38.2	38.2	38.2	73	30.3	0	2	135	0.00	29.880 
02:05	38.2	38.2	38.2	74	30.7	0	1	135	0.00	29.880 
02:10	38.0	38.0	38.0	74	30.5	0	1	135	0.00	29.880 
02:15	38.0	38.0	38.0	74	30.5	0	1	202	0.00	29.881 
02:20	38.0	38.0	38.0	74	30.5	0	1	202	0.00	29.881 
02:25	38.0	38.0	38.0	74	30.5	0	2	202	0.00	29.881 
02:30	38.0	38.0	38.0	74	30.5	0	2	202	0.00	29.870 
02:35	38.2	38.2	38.2	74	30.7	0	1	202	0.00	29.870 
02:40	38.2	38.2	38.2	74	30.7	0	1	202	0.00	29.870 
02:45	38.2	38.2	38.2	74	30.7	0	1	135	0.00	29.868 
02:50	38.2	38.2	38.2	74	30.7	0	1	135	0.00	29.868 
02:55	38.2	38.2	38.2	75	31.0	0	1	135	0.00	29.868 
03:00	38.2	38.2	38.2	75	31.0	0	2	135	0.00	29.866 
03:05	38.2	38.2	38.2	75	31.0	0	1	135	0.00	29.866 
03:10	38.2	38.2	38.2	74	30.7	0	1	135	0.00	29.866 
03:15	38.2	38.2	38.2	74	30.7	0	3	135	0.00	29.856 
03:20	38.3	38.3	38.3	74	30.8	0	1	112	0.00	29.856 
03:25	38.3	38.3	38.3	74	30.8	0	3	90	0.00	29.856 
03:30	38.3	38.3	38.3	74	30.8	0	1	90	0.00	29.846 
03:35	38.3	38.3	38.3	74	30.8	0	3	90	0.00	29.846 
03:40	38.3	38.3	38.3	74	30.8	0	3	90	0.00	29.846 
03:45	38.2	38.2	38.2	74	30.7	0	2	90	0.00	29.837 
03:50	38.2	38.2	38.2	74	30.7	0	2	90	0.00	29.837 
03:55	38.2	38.2	38.2	74	30.7	0	2	90	0.00	29.837 
04:00	38.3	38.3	38.3	74	30.8	0	3	90	0.00	29.832 
04:05	38.3	38.3	38.3	74	30.8	0	2	112	0.00	29.832 
04:10	38.3	38.3	38.3	74	30.8	0	2	112	0.00	29.832 
04:15	38.3	38.3	38.3	74	30.8	0	5	112	0.00	29.823 
04:20	38.5	38.5	38.5	74	30.9	0	3	112	0.00	29.823 
04:25	38.5	38.5	38.5	74	30.9	0	3	112	0.00	29.823 
04:30	38.6	38.6	38.6	74	31.0	0	4	90	0.00	29.819 
04:35	38.6	38.6	38.6	74	31.0	1	4	90	0.00	29.819 
04:40	38.8	38.8	38.8	73	30.9	0	3	90	0.00	29.819 
04:45	38.8	38.8	38.8	73	30.9	0	2	90	0.00	29.808 
04:50	38.8	38.8	38.8	73	30.9	0	2	90	0.00	29.808 
04:55	38.8	38.8	38.8	73	30.9	0	2	45	0.00	29.808 
05:00	38.9	38.9	38.9	74	31.3	0	2	68	0.00	29.812 
05:05	38.9	38.9	38.9	73	31.0	0	2	68	0.00	29.812 
05:10	38.9	38.9	38.9	73	31.0	0	2	68	0.00	29.812 
05:15	38.9	38.9	38.9	73	31.0	0	1	45	0.00	29.803 
05:20	38.9	38.9	38.9	73	31.0	1	5	45	0.00	29.803 
05:25	39.1	39.1	39.1	73	31.2	0	2	45	0.00	29.803 
05:30	38.9	38.9	38.9	73	31.0	0	2	45	0.00	29.790 
05:35	38.9	38.9	38.9	73	31.0	0	2	45	0.00	29.790 
05:40	38.9	38.9	38.9	73	31.0	0	2	45	0.00	29.790 
05:45	38.9	38.9	38.9	74	31.3	0	3	45	0.00	29.777 
05:50	38.9	38.9	38.9	74	31.3	0	4	45	0.00	29.777 
05:55	38.9	38.9	38.9	74	31.3	0	2	22	0.00	29.777 
06:00	38.9	38.9	38.9	74	31.3	0	3	22	0.00	29.773 
06:05	38.9	38.9	38.9	74	31.3	0	3	22	0.00	29.773 
06:10	38.9	38.9	38.9	74	31.3	0	2	68	0.00	29.773 
06:15	38.9	38.9	38.9	74	31.3	0	1	68	0.00	29.768 
06:20	39.1	39.1	39.1	74	31.5	0	4	270	0.00	29.768 
06:25	39.1	39.1	39.1	74	31.5	0	2	270	0.00	29.768 
06:30	39.2	39.2	39.2	74	31.6	0	2	270	0.00	29.765 
06:35	39.2	39.2	39.2	73	31.3	0	1	270	0.00	29.765 
06:40	39.2	39.2	39.2	73	31.3	0	1	270	0.00	29.765 
06:45	39.2	39.2	39.2	73	31.3	0	1	270	0.00	29.764 
06:50	39.3	39.3	39.3	73	31.4	0	2	292	0.00	29.764 
06:55	39.3	39.3	39.3	73	31.4	0	1	292	0.00	29.764 
07:00	39.3	39.3	39.3	73	31.4	0	1	292	0.00	29.765 
07:05	39.5	39.5	39.5	73	31.6	0	1	292	0.00	29.765 
07:10	39.5	39.5	39.5	73	31.6	0	1	292	0.00	29.765 
07:15	39.6	39.6	39.6	73	31.7	0	4	315	0.00	29.769 
07:20	39.6	39.6	39.6	73	31.7	0	3	338	0.00	29.769 
07:25	39.8	39.8	39.8	73	31.9	0	2	248	0.00	29.769 
07:30	39.8	39.8	39.8	73	31.9	0	2	248	0.00	29.762 
07:35	39.9	39.9	39.9	73	32.0	0	1	248	0.00	29.762 
07:40	40.1	40.1	40.1	73	32.2	0	1	248	0.00	29.762 
07:45	40.1	40.1	40.1	73	32.2	0	1	248	0.00	29.760 
07:50	40.2	40.2	40.2	73	32.2	0	1	248	0.00	29.760 
07:55	40.2	40.2	40.2	73	32.2	0	1	248	0.00	29.760 
08:00	40.3	40.3	40.3	72	32.0	0	2	248	0.00	29.765 
08:05	40.3	40.3	40.3	72	32.0	0	2	248	0.00	29.765 
08:10	40.5	40.5	40.5	72	32.2	0	3	248	0.00	29.765 
08:15	40.6	40.6	40.6	72	32.3	0	2	315	0.00	29.766 
08:20	40.6	40.6	40.6	72	32.3	0	1	315	0.00	29.766 
08:25	40.8	40.8	40.8	72	32.5	0	2	315	0.00	29.766 
08:30	40.8	40.8	40.8	72	32.5	0	1	315	0.00	29.763 
08:35	40.9	40.9	40.9	72	32.6	0	2	292	0.00	29.763 
08:40	41.2	41.2	41.2	71	32.5	0	2	292	0.00	29.763 
08:45	41.3	41.3	41.3	71	32.6	0	2	292	0.00	29.759 
08:50	41.5	41.5	41.5	70	32.5	0	3	292	0.00	29.759 
08:55	41.6	41.6	41.6	70	32.6	1	5	248	0.00	29.759 
09:00	41.8	41.8	41.8	69	32.4	0	4	248	0.00	29.757 
09:05	41.8	41.8	41.8	69	32.4	0	3	248	0.00	29.757 
09:10	41.9	41.9	41.9	69	32.5	1	3	248	0.00	29.757 
09:15	42.2	42.2	42.2	69	32.8	0	2	248	0.00	29.761 
09:20	42.3	42.3	42.3	68	32.5	0	3	248	0.00	29.761 
09:25	42.3	42.3	42.3	68	32.5	1	5	248	0.00	29.761 
09:30	42.3	42.3	42.3	68	32.5	1	5	248	0.00	29.757 
09:35	42.5	42.5	42.5	68	32.7	1	3	270	0.00	29.757 
09:40	42.6	42.6	42.6	68	32.8	1	6	248	0.00	29.757 
09:45	42.6	42.6	42.6	68	32.8	1	4	248	0.00	29.758 
09:50	42.8	42.8	42.8	68	33.0	1	4	248	0.00	29.758 
09:55	42.9	42.9	42.9	68	33.1	1	6	248	0.00	29.758 
10:00	42.9	42.9	42.9	68	33.1	1	6	248	0.00	29.755 
10:05	43.1	43.1	43.1	68	33.3	2	7	248	0.00	29.755 
10:10	43.2	43.2	43.2	68	33.4	1	3	248	0.00	29.755 
10:15	43.3	43.3	43.3	69	33.8	1	3	248	0.00	29.763 
10:20	43.5	43.5	43.5	68	33.7	2	6	248	0.00	29.763 
10:25	43.8	43.8	43.8	68	33.9	1	5	248	0.00	29.763 
10:30	44.1	44.1	44.1	67	33.9	1	4	248	0.00	29.765 
10:35	44.2	44.2	44.2	67	33.9	2	6	270	0.00	29.765 
10:40	44.2	44.2	44.2	68	34.3	1	4	248	0.00	29.765 
10:45	44.3	44.3	44.3	68	34.4	2	5	248	0.00	29.771 
10:50	44.3	44.3	44.3	68	34.4	2	6	270	0.00	29.771 
10:55	44.3	44.3	44.3	68	34.4	2	6	270	0.00	29.771 
11:00	44.6	44.6	44.6	68	34.7	1	4	248	0.00	29.774 
11:05	44.6	44.6	44.6	68	34.7	3	6	270	0.00	29.774 
11:10	44.8	44.8	44.8	68	34.9	2	7	248	0.00	29.774 
11:15	44.8	44.8	44.8	69	35.3	2	9	270	0.00	29.783 
11:20	44.8	44.8	44.8	69	35.3	1	5	270	0.00	29.783 
11:25	44.6	44.6	44.6	69	35.1	3	5	270	0.00	29.783 
11:30	44.6	44.6	44.6	71	35.8	1	4	270	0.00	29.783 
11:35	44.3	44.3	44.3	72	35.9	2	4	270	0.00	29.783 
11:40	44.2	44.2	44.2	73	36.1	1	4	270	0.00	29.783 
11:45	44.2	44.2	44.2	73	36.1	1	4	270	0.00	29.784 
11:50	44.2	44.2	44.2	73	36.1	1	4	270	0.00	29.784 
11:55	44.3	44.3	44.3	73	36.2	1	4	270	0.00	29.784 
12:00	44.3	44.3	44.3	73	36.2	2	4	270	0.00	29.783 
12:05	44.5	44.5	44.5	73	36.4	2	4	270	0.00	29.783 
12:10	44.5	44.5	44.5	73	36.4	3	6	270	0.00	29.783 
12:15	44.5	44.5	44.5	73	36.4	2	5	292	0.00	29.786 
12:20	44.6	44.6	44.6	73	36.5	2	5	292	0.00	29.786 
12:25	44.5	44.5	44.5	73	36.4	3	6	270	0.00	29.786 
12:30	44.3	44.3	44.3	75	36.9	3	5	292	0.00	29.785 
12:35	44.2	44.2	44.2	76	37.1	3	7	292	0.00	29.785 
12:40	44.2	44.2	44.2	77	37.5	2	4	270	0.00	29.785 
12:45	44.1	44.1	44.1	77	37.4	3	6	270	0.00	29.784 
12:50	43.9	43.9	43.9	78	37.5	3	6	292	0.00	29.784 
12:55	43.9	43.9	43.9	79	37.8	3	5	292	0.00	29.784 
13:00	44.1	44.1	44.1	79	38.0	2	4	270	0.00	29.779 
13:05	44.1	44.1	44.1	79	38.0	3	6	270	0.00	29.779 
13:10	44.2	44.2	44.2	79	38.1	3	7	270	0.00	29.779 
13:15	44.3	44.3	44.3	79	38.2	2	4	270	0.00	29.781 
13:20	44.3	44.3	44.3	77	37.6	3	7	315	0.00	29.781 
13:25	44.3	44.3	44.3	77	37.6	2	6	315	0.00	29.781 
13:30	44.3	44.3	44.3	77	37.6	3	7	270	0.00	29.783 
13:35	44.5	44.5	44.5	77	37.7	2	5	292	0.00	29.783 
13:40	44.8	44.8	44.8	76	37.7	3	6	315	0.00	29.783 
13:45	44.8	44.8	44.8	74	37.0	2	6	292	0.00	29.786 
13:50	44.8	42.9	44.8	72	36.3	4	10	315	0.00	29.786 
13:55	44.8	44.8	44.8	73	36.7	2	5	270	0.00	29.786 
14:00	44.8	42.9	44.8	72	36.3	4	9	270	0.00	29.795 
14:05	44.8	42.9	44.8	71	36.0	4	10	270	0.00	29.795 
14:10	44.8	44.8	44.8	72	36.3	2	6	338	0.00	29.795 
14:15	44.8	44.8	44.8	72	36.3	3	5	338	0.00	29.801 
14:20	44.8	44.8	44.8	72	36.3	2	5	315	0.00	29.801 
14:25	44.6	42.6	44.6	71	35.8	4	9	315	0.00	29.801 
14:30	44.5	44.5	44.5	72	36.0	3	7	315	0.00	29.804 
14:35	44.3	44.3	44.3	73	36.2	2	5	292	0.00	29.804 
14:40	44.1	44.1	44.1	75	36.7	2	4	315	0.00	29.804 
14:45	43.9	43.9	43.9	76	36.8	2	4	315	0.00	29.814 
14:50	43.6	43.6	43.6	77	36.9	1	4	292	0.00	29.814 
14:55	43.5	43.5	43.5	79	37.4	1	3	292	0.00	29.814 
15:00	43.6	43.6	43.6	79	37.5	1	3	292	0.00	29.817 
15:05	43.8	43.8	43.8	78	37.4	1	4	292	0.00	29.817 
15:10	43.8	43.8	43.8	77	37.1	2	5	292	0.00	29.817 
15:15	43.6	43.6	43.6	77	36.9	3	9	292	0.00	29.821 
15:20	43.5	43.5	43.5	78	37.1	2	5	292	0.00	29.821 
15:25	43.3	43.3	43.3	78	36.9	1	3	315	0.00	29.821 
15:30	43.3	43.3	43.3	78	36.9	1	5	315	0.00	29.830 
15:35	43.3	43.3	43.3	77	36.6	2	5	315	0.00	29.830 
15:40	43.5	43.5	43.5	77	36.8	1	3	315	0.00	29.830 
15:45	43.5	43.5	43.5	77	36.8	2	4	270	0.00	29.833 
15:50	43.6	43.6	43.6	77	36.9	1	4	270	0.00	29.833 
15:55	43.6	43.6	43.6	75	36.2	1	4	270	0.00	29.833 
16:00	43.8	43.8	43.8	75	36.4	1	5	338	0.00	29.835 
16:05	43.9	43.9	43.9	74	36.2	0	3	338	0.00	29.835 
16:10	43.9	43.9	43.9	73	35.8	1	3	292	0.00	29.835 
16:15	44.1	44.1	44.1	73	36.0	2	5	338	0.00	29.837 
16:20	44.1	44.1	44.1	73	36.0	1	4	248	0.00	29.837 
16:25	43.9	43.9	43.9	72	35.5	1	4	248	0.00	29.837 
16:30	43.9	43.9	43.9	72	35.5	1	4	248	0.00	29.846 
16:35	43.9	43.9	43.9	72	35.5	1	3	292	0.00	29.846 
16:40	43.9	43.9	43.9	72	35.5	0	3	292	0.00	29.846 
16:45	43.9	43.9	43.9	71	35.1	1	3	292	0.00	29.849 
16:50	43.9	43.9	43.9	71	35.1	1	3	292	0.00	29.849 
16:55	43.9	43.9	43.9	70	34.8	1	3	292	0.00	29.849 
17:00	44.1	44.1	44.1	70	35.0	1	4	292	0.00	29.858 
17:05	43.9	43.9	43.9	68	34.0	2	5	270	0.00	29.858 
17:10	44.1	44.1	44.1	68	34.2	2	6	315	0.00	29.858 
17:15	44.1	44.1	44.1	67	33.9	2	7	292	0.00	29.864 
17:20	44.1	44.1	44.1	66	33.5	2	6	315	0.00	29.864 
17:25	43.9	43.9	43.9	66	33.3	1	5	270	0.00	29.864 
17:30	43.9	43.9	43.9	66	33.3	1	5	315	0.00	29.868 
17:35	43.9	43.9	43.9	67	33.7	1	4	315	0.00	29.868 
17:40	43.8	43.8	43.8	67	33.6	1	2	292	0.00	29.868 
17:45	43.8	43.8	43.8	68	33.9	0	2	292	0.00	29.877 
17:50	43.8	43.8	43.8	68	33.9	0	2	292	0.00	29.877 
17:55	43.6	43.6	43.6	68	33.7	0	2	292	0.00	29.877 
18:00	43.6	43.6	43.6	68	33.7	0	1	292	0.00	29.880 
18:05	43.6	43.6	43.6	69	34.1	0	1	292	0.00	29.880 
18:10	43.5	43.5	43.5	69	34.0	0	1	292	0.00	29.880 
18:15	43.5	43.5	43.5	69	34.0	0	1	292	0.00	29.882 
18:20	43.5	43.5	43.5	69	34.0	0	2	292	0.00	29.882 
18:25	43.5	43.5	43.5	68	33.7	0	2	292	0.00	29.882 
18:30	43.5	43.5	43.5	68	33.7	0	2	292	0.00	29.894 
18:35	43.5	43.5	43.5	68	33.7	0	1	292	0.00	29.894 
18:40	43.3	43.3	43.3	68	33.5	0	1	292	0.00	29.894 
18:45	43.3	43.3	43.3	69	33.8	0	0	---	0.00	29.897 
18:50	43.2	43.2	43.2	69	33.7	0	0	---	0.00	29.897 
18:55	43.2	43.2	43.2	69	33.7	0	1	292	0.00	29.897 
19:00	43.2	43.2	43.2	69	33.7	0	1	292	0.00	29.908 
19:05	43.1	43.1	43.1	70	34.0	0	1	292	0.00	29.908 
19:10	43.1	43.1	43.1	70	34.0	0	1	292	0.00	29.908 
19:15	43.1	43.1	43.1	70	34.0	0	1	292	0.00	29.911 
19:20	42.9	42.9	42.9	70	33.8	0	1	292	0.00	29.911 
19:25	42.9	42.9	42.9	70	33.8	0	1	292	0.00	29.911 
19:30	42.9	42.9	42.9	70	33.8	0	1	292	0.00	29.916 
19:35	42.9	42.9	42.9	70	33.8	0	2	292	0.00	29.916 
19:40	42.9	42.9	42.9	69	33.4	0	2	292	0.00	29.916 
19:45	42.9	42.9	42.9	69	33.4	0	2	292	0.00	29.914 
19:50	42.9	42.9	42.9	69	33.4	0	2	292	0.00	29.914 
19:55	42.9	42.9	42.9	68	33.1	0	2	292	0.00	29.914 
20:00	42.8	42.8	42.8	69	33.3	0	1	292	0.00	29.912 
20:05	42.8	42.8	42.8	69	33.3	0	1	292	0.00	29.912 
20:10	42.8	42.8	42.8	69	33.3	0	1	292	0.00	29.912 
20:15	42.8	42.8	42.8	69	33.3	0	2	292	0.00	29.916 
20:20	42.8	42.8	42.8	69	33.3	0	1	292	0.00	29.916 
20:25	42.8	42.8	42.8	69	33.3	0	2	292	0.00	29.916 
20:30	42.8	42.8	42.8	69	33.3	1	3	292	0.00	29.923 
20:35	42.8	42.8	42.8	69	33.3	0	2	292	0.00	29.923 
20:40	42.6	42.6	42.6	69	33.2	0	2	292	0.00	29.923 
20:45	42.6	42.6	42.6	69	33.2	0	2	292	0.00	29.928 
20:50	42.6	42.6	42.6	69	33.2	0	2	292	0.00	29.928 
20:55	42.6	42.6	42.6	70	33.5	0	2	292	0.00	29.928 
21:00	42.6	42.6	42.6	70	33.5	0	1	292	0.00	29.933 
21:05	42.5	42.5	42.5	70	33.4	1	3	292	0.00	29.933 
21:10	42.5	42.5	42.5	69	33.1	0	3	292	0.00	29.933 
21:15	42.3	42.3	42.3	70	33.2	0	2	292	0.00	29.929 
21:20	42.3	42.3	42.3	70	33.2	0	1	292	0.00	29.929 
21:25	42.2	42.2	42.2	70	33.1	0	1	292	0.00	29.929 
21:30	42.1	42.1	42.1	69	32.7	0	2	292	0.00	29.935 
21:35	41.9	41.9	41.9	69	32.5	0	1	292	0.00	29.935 
21:40	41.8	41.8	41.8	69	32.4	0	1	292	0.00	29.935 
21:45	41.6	41.6	41.6	70	32.6	0	0	---	0.00	29.939 
21:50	41.3	41.3	41.3	70	32.3	0	0	---	0.00	29.939 
21:55	41.1	41.1	41.1	71	32.4	0	0	---	0.00	29.939 
22:00	40.6	40.6	40.6	71	31.9	0	0	---	0.00	29.942 
22:05	40.3	40.3	40.3	71	31.7	0	0	---	0.00	29.942 
22:10	40.1	40.1	40.1	71	31.5	0	0	---	0.00	29.942 
22:15	39.8	39.8	39.8	71	31.2	0	0	---	0.00	29.927 
22:20	39.5	39.5	39.5	71	30.9	0	0	---	0.00	29.927 
22:25	39.1	39.1	39.1	71	30.5	0	0	---	0.00	29.927 
22:30	38.8	38.8	38.8	71	30.2	0	0	---	0.00	29.937 
22:35	38.5	38.5	38.5	72	30.3	0	0	---	0.00	29.937 
22:40	38.2	38.2	38.2	72	30.0	0	0	---	0.00	29.937 
22:45	37.9	37.9	37.9	73	30.0	0	0	---	0.00	29.936 
22:50	37.8	37.8	37.8	73	29.9	0	0	---	0.00	29.936 
22:55	37.5	37.5	37.5	74	30.0	0	0	---	0.00	29.936 
23:00	37.3	37.3	37.3	74	29.8	0	0	---	0.00	29.927 
23:05	37.2	37.2	37.2	75	30.0	0	0	---	0.00	29.927 
23:10	37.0	37.0	37.0	75	29.8	0	0	---	0.00	29.927 
23:15	37.0	37.0	37.0	76	30.2	0	0	---	0.00	29.924 
23:20	37.0	37.0	37.0	77	30.5	0	0	---	0.00	29.924 
23:25	37.0	37.0	37.0	77	30.5	0	0	---	0.00	29.924 
23:30	37.2	37.2	37.2	78	31.0	0	0	---	0.00	29.925 
23:35	37.5	37.5	37.5	78	31.3	0	0	---	0.00	29.925 
23:40	37.6	37.6	37.6	78	31.4	0	0	---	0.00	29.925 
23:45	37.9	37.9	37.9	78	31.7	0	0	---	0.00	29.914 
23:50	38.2	38.2	38.2	78	32.0	0	1	292	0.00	29.914 
23:55	38.6	38.6	38.6	78	32.3	0	1	292	0.00	29.914 

CoCoRaHS
IN-AL-39
A2 Web Hosting
Creative Commons License
GoDaddy
search engine by freefind advanced

loaded 2018-11-17 14:33:46 • last modified 2010-11-18 10:43:29
Privacy PolicyDisclaimer
• wx.awcolley.com is powered by PmWiki v.2002016 •
• all content (unless otherwise noted) © 2018 A W Colley